createdAt,value
2023-04-30T00:00:11.403Z,84.08
2023-04-30T00:02:39.761Z,84.69
2023-04-30T00:05:07.537Z,84.30
2023-04-30T00:07:34.747Z,84.53
2023-04-30T00:10:03.152Z,85.13
2023-04-30T00:12:30.487Z,84.54
2023-04-30T00:14:57.738Z,84.88
2023-04-30T00:17:25.381Z,85.48
2023-04-30T00:19:53.231Z,84.30
2023-04-30T00:22:20.755Z,83.38
2023-04-30T00:24:48.443Z,84.05
2023-04-30T00:27:15.707Z,84.04
2023-04-30T00:29:44.075Z,83.53
2023-04-30T00:32:11.774Z,83.68
2023-04-30T00:34:39.276Z,83.50
2023-04-30T00:37:06.543Z,83.80
2023-04-30T00:39:34.167Z,83.17
2023-04-30T00:42:02.696Z,83.96
2023-04-30T00:44:29.979Z,83.94
2023-04-30T00:46:57.555Z,83.65
2023-04-30T00:49:24.825Z,85.29
2023-04-30T00:51:54.498Z,85.10
2023-04-30T00:54:24.008Z,83.67
2023-04-30T00:56:52.294Z,84.65
2023-04-30T00:59:19.700Z,84.53
2023-04-30T01:01:47.710Z,85.29
2023-04-30T01:04:15.121Z,85.11
2023-04-30T01:06:43.603Z,84.48
2023-04-30T01:09:11.554Z,83.66
2023-04-30T01:11:57.886Z,83.17
2023-04-30T01:14:31.688Z,83.06
2023-04-30T01:17:36.832Z,83.18
2023-04-30T01:20:06.222Z,83.40
2023-04-30T01:23:03.177Z,83.85
2023-04-30T01:26:11.864Z,83.57
2023-04-30T01:28:42.876Z,82.15
2023-04-30T01:31:20.090Z,81.95
2023-04-30T01:33:47.542Z,83.21
2023-04-30T01:36:37.626Z,83.07
2023-04-30T01:39:37.266Z,82.59
2023-04-30T01:42:22.294Z,83.01
2023-04-30T01:45:07.273Z,83.70
2023-04-30T01:48:27.148Z,82.81
2023-04-30T01:51:02.359Z,81.84
2023-04-30T01:53:40.418Z,82.25
2023-04-30T01:56:14.172Z,83.70
2023-04-30T01:58:42.772Z,84.29
2023-04-30T02:01:29.890Z,83.65
2023-04-30T02:03:58.181Z,83.05
2023-04-30T02:06:30.385Z,83.05
2023-04-30T02:09:03.562Z,82.93
2023-04-30T02:11:31.111Z,83.26
2023-04-30T02:13:58.696Z,83.48
2023-04-30T02:16:26.551Z,82.95
2023-04-30T02:18:54.426Z,82.94
2023-04-30T02:21:21.782Z,83.67
2023-04-30T02:23:49.939Z,83.48
2023-04-30T02:26:17.623Z,83.09
2023-04-30T02:28:45.078Z,83.54
2023-04-30T02:31:12.534Z,83.35
2023-04-30T02:33:40.176Z,82.92
2023-04-30T02:36:07.830Z,83.97
2023-04-30T02:38:35.286Z,83.08
2023-04-30T02:41:03.614Z,83.93
2023-04-30T02:43:31.009Z,84.67
2023-04-30T02:45:58.302Z,85.44
2023-04-30T02:48:26.010Z,85.22
2023-04-30T02:50:53.425Z,85.20
2023-04-30T02:53:20.963Z,84.34
2023-04-30T02:55:49.982Z,84.50
2023-04-30T02:58:17.307Z,83.58
2023-04-30T03:00:44.636Z,83.35
2023-04-30T03:03:12.588Z,83.26
2023-04-30T03:05:40.309Z,84.48
2023-04-30T03:08:07.877Z,84.55
2023-04-30T03:10:35.672Z,85.26
2023-04-30T03:13:02.986Z,85.67
2023-04-30T03:15:33.146Z,85.90
2023-04-30T03:18:00.878Z,86.76
2023-04-30T03:20:28.178Z,87.48
2023-04-30T03:22:55.524Z,87.57
2023-04-30T03:25:23.262Z,87.51
2023-04-30T03:27:50.602Z,88.15
2023-04-30T03:30:18.028Z,87.21
2023-04-30T03:32:45.878Z,86.91
2023-04-30T03:35:13.368Z,86.43
2023-04-30T03:37:40.952Z,85.90
2023-04-30T03:40:09.094Z,86.76
2023-04-30T03:42:36.316Z,87.18
2023-04-30T03:45:04.466Z,86.13
2023-04-30T03:47:32.115Z,86.51
2023-04-30T03:49:59.453Z,87.62
2023-04-30T03:52:26.902Z,88.96
2023-04-30T03:54:54.671Z,88.76
2023-04-30T03:57:22.438Z,88.97
2023-04-30T04:00:08.365Z,89.65
2023-04-30T04:02:52.094Z,87.48
2023-04-30T04:05:26.809Z,88.44
2023-04-30T04:07:54.445Z,89.23
2023-04-30T04:10:22.507Z,89.69
2023-04-30T04:12:49.905Z,88.27
2023-04-30T04:15:17.224Z,89.72
2023-04-30T04:17:45.104Z,89.65
2023-04-30T04:20:14.134Z,89.73
2023-04-30T04:22:43.143Z,90.60
2023-04-30T04:25:11.027Z,91.67
2023-04-30T04:27:39.338Z,92.31
2023-04-30T04:30:07.331Z,93.68
2023-04-30T04:32:46.734Z,93.94
2023-04-30T04:35:21.204Z,92.76
2023-04-30T04:37:49.384Z,92.36
2023-04-30T04:40:20.093Z,91.19
2023-04-30T04:42:51.598Z,89.76
2023-04-30T04:45:21.109Z,88.23
2023-04-30T04:47:49.424Z,89.47
2023-04-30T04:50:17.691Z,89.76
2023-04-30T04:52:45.656Z,89.23
2023-04-30T04:55:13.546Z,88.29
2023-04-30T04:57:42.700Z,88.99
2023-04-30T05:00:11.963Z,88.76
2023-04-30T05:02:39.312Z,88.65
2023-04-30T05:05:11.186Z,87.78
2023-04-30T05:07:39.715Z,87.40
2023-04-30T05:10:08.262Z,88.07
2023-04-30T05:12:36.089Z,87.96
2023-04-30T05:15:04.806Z,89.53
2023-04-30T05:17:32.218Z,88.38
2023-04-30T05:19:59.616Z,91.53
2023-04-30T05:22:27.200Z,91.14
2023-04-30T05:24:54.695Z,90.13
2023-04-30T05:27:25.733Z,90.52
2023-04-30T05:29:55.786Z,89.21
2023-04-30T05:32:24.184Z,89.01
2023-04-30T05:34:51.788Z,90.32
2023-04-30T05:37:21.264Z,91.93
2023-04-30T05:39:54.521Z,92.39
2023-04-30T05:42:25.615Z,92.62
2023-04-30T05:44:53.467Z,92.73
2023-04-30T05:47:20.871Z,93.18
2023-04-30T05:49:48.541Z,93.07
2023-04-30T05:52:17.708Z,92.89
2023-04-30T05:54:50.031Z,92.07
2023-04-30T05:57:17.941Z,92.49
2023-04-30T05:59:45.506Z,92.17
2023-04-30T06:02:14.509Z,88.56
2023-04-30T06:04:43.613Z,88.56
2023-04-30T06:07:11.248Z,88.94
2023-04-30T06:09:38.634Z,88.17
2023-04-30T06:12:06.487Z,87.06
2023-04-30T06:14:33.981Z,86.60
2023-04-30T06:17:01.386Z,89.64
2023-04-30T06:19:29.167Z,88.83
2023-04-30T06:21:56.521Z,88.73
2023-04-30T06:24:24.081Z,88.04
2023-04-30T06:26:52.239Z,87.57
2023-04-30T06:29:20.297Z,86.67
2023-04-30T06:31:51.997Z,86.60
2023-04-30T06:34:21.286Z,86.80
2023-04-30T06:36:48.756Z,85.85
2023-04-30T06:39:17.240Z,85.01
2023-04-30T06:41:45.336Z,84.04
2023-04-30T06:44:13.304Z,83.83
2023-04-30T06:46:42.455Z,83.85
2023-04-30T06:49:10.423Z,81.74
2023-04-30T06:51:38.020Z,82.39
2023-04-30T06:54:06.440Z,83.76
2023-04-30T06:56:39.802Z,82.19
2023-04-30T06:59:07.895Z,83.60
2023-04-30T07:01:35.632Z,81.11
2023-04-30T07:04:03.177Z,80.07
2023-04-30T07:06:30.994Z,78.60
2023-04-30T07:08:59.132Z,79.86
2023-04-30T07:11:26.949Z,77.68
2023-04-30T07:13:54.454Z,76.78
2023-04-30T07:16:23.536Z,78.21
2023-04-30T07:18:50.858Z,79.23
2023-04-30T07:21:18.889Z,77.92
2023-04-30T07:23:46.957Z,77.63
2023-04-30T07:26:15.247Z,75.96
2023-04-30T07:28:42.910Z,74.88
2023-04-30T07:31:11.726Z,74.66
2023-04-30T07:33:39.153Z,74.20
2023-04-30T07:36:06.831Z,71.76
2023-04-30T07:38:34.685Z,69.21
2023-04-30T07:41:02.488Z,69.70
2023-04-30T07:43:34.614Z,69.56
2023-04-30T07:46:02.751Z,63.63
2023-04-30T07:48:34.878Z,62.05
2023-04-30T07:51:11.436Z,62.32
2023-04-30T07:53:38.863Z,63.57
2023-04-30T07:56:07.573Z,59.40
2023-04-30T07:58:35.058Z,58.05
2023-04-30T08:01:02.554Z,58.14
2023-04-30T08:03:30.547Z,56.54
2023-04-30T08:05:58.707Z,55.60
2023-04-30T08:08:26.489Z,56.28
2023-04-30T08:10:54.988Z,56.77
2023-04-30T08:13:22.597Z,57.62
2023-04-30T08:15:50.351Z,59.84
2023-04-30T08:18:18.174Z,57.97
2023-04-30T08:20:45.739Z,60.29
2023-04-30T08:23:13.035Z,58.50
2023-04-30T08:25:40.955Z,58.20
2023-04-30T08:28:08.327Z,58.67
2023-04-30T08:30:36.527Z,58.42
2023-04-30T08:33:05.175Z,59.16
2023-04-30T08:35:32.593Z,60.07
2023-04-30T08:38:00.934Z,58.59
2023-04-30T08:40:49.330Z,58.60
2023-04-30T08:43:20.302Z,60.24
2023-04-30T08:45:51.432Z,58.50
2023-04-30T08:48:19.498Z,58.43
2023-04-30T08:50:47.325Z,58.08
2023-04-30T08:53:17.716Z,58.47
2023-04-30T08:55:45.255Z,56.13
2023-04-30T08:58:12.698Z,57.73
2023-04-30T09:00:40.965Z,57.35
2023-04-30T09:03:09.023Z,58.01
2023-04-30T09:05:38.286Z,56.93
2023-04-30T09:08:08.102Z,57.66
2023-04-30T09:10:36.112Z,58.66
2023-04-30T09:13:09.918Z,58.26
2023-04-30T09:15:41.369Z,58.79
2023-04-30T09:18:21.350Z,62.31
2023-04-30T09:20:58.591Z,63.29
2023-04-30T09:23:26.518Z,64.05
2023-04-30T09:25:55.100Z,66.03
2023-04-30T09:28:31.962Z,63.54
2023-04-30T09:31:00.203Z,64.17
2023-04-30T09:33:27.818Z,63.12
2023-04-30T09:35:55.267Z,59.75
2023-04-30T09:38:31.976Z,57.99
2023-04-30T09:41:01.125Z,56.49
2023-04-30T09:43:30.099Z,59.18
2023-04-30T09:45:59.981Z,55.12
2023-04-30T09:48:28.983Z,53.18
2023-04-30T09:50:58.804Z,52.73
2023-04-30T09:53:34.585Z,52.26
2023-04-30T09:56:07.637Z,51.55
2023-04-30T09:58:39.336Z,52.10
2023-04-30T10:01:11.914Z,51.70
2023-04-30T10:03:44.674Z,50.78
2023-04-30T10:06:15.909Z,48.79
2023-04-30T10:08:46.899Z,49.24
2023-04-30T10:11:20.015Z,46.48
2023-04-30T10:13:56.029Z,45.45
2023-04-30T10:16:55.322Z,44.09
2023-04-30T10:19:26.083Z,45.44
2023-04-30T10:21:54.089Z,43.45
2023-04-30T10:24:21.991Z,43.60
2023-04-30T10:26:51.070Z,41.72
2023-04-30T10:29:19.484Z,42.00
2023-04-30T10:31:49.729Z,42.29
2023-04-30T10:35:01.463Z,44.50
2023-04-30T10:38:04.517Z,43.21
2023-04-30T10:40:38.808Z,46.71
2023-04-30T10:43:07.107Z,49.75
2023-04-30T10:45:38.206Z,49.12
2023-04-30T10:48:07.459Z,46.30
2023-04-30T10:50:49.885Z,45.51
2023-04-30T10:53:20.961Z,46.11
2023-04-30T10:55:58.004Z,45.89
2023-04-30T10:58:43.136Z,45.15
2023-04-30T11:01:20.882Z,43.90
2023-04-30T11:04:11.624Z,46.29
2023-04-30T11:07:12.067Z,51.21
2023-04-30T11:09:45.581Z,63.61
2023-04-30T11:12:31.865Z,71.15
2023-04-30T11:15:13.917Z,73.19
2023-04-30T11:17:46.469Z,80.65
2023-04-30T11:20:24.049Z,75.29
2023-04-30T11:23:11.579Z,76.17
2023-04-30T11:25:47.638Z,76.04
2023-04-30T11:28:20.123Z,80.36
2023-04-30T11:30:56.868Z,81.41
2023-04-30T11:33:27.830Z,78.26
2023-04-30T11:35:56.622Z,72.98
2023-04-30T11:38:34.486Z,62.12
2023-04-30T11:41:03.155Z,57.99
2023-04-30T11:43:32.267Z,65.11
2023-04-30T11:46:11.853Z,68.02
2023-04-30T11:48:44.627Z,64.99
2023-04-30T11:51:15.899Z,59.80
2023-04-30T11:53:46.097Z,65.86
2023-04-30T11:56:13.897Z,67.78
2023-04-30T11:58:43.771Z,62.09
2023-04-30T12:01:11.812Z,65.15
2023-04-30T12:03:48.159Z,68.53
2023-04-30T12:06:29.346Z,61.74
2023-04-30T12:08:58.872Z,58.48
2023-04-30T12:11:28.604Z,59.60
2023-04-30T12:14:16.818Z,59.91
2023-04-30T12:16:50.919Z,64.01
2023-04-30T12:19:19.653Z,56.20
2023-04-30T12:21:49.138Z,54.28
2023-04-30T12:24:23.236Z,57.47
2023-04-30T12:26:54.077Z,54.43
2023-04-30T12:29:23.133Z,56.38
2023-04-30T12:31:52.211Z,51.61
2023-04-30T12:34:19.817Z,51.08
2023-04-30T12:36:47.219Z,52.63
2023-04-30T12:39:16.461Z,45.45
2023-04-30T12:41:44.656Z,45.16
2023-04-30T12:44:19.331Z,48.17
2023-04-30T12:46:49.273Z,46.22
2023-04-30T12:49:25.066Z,51.85
2023-04-30T12:51:57.039Z,47.82
2023-04-30T12:54:30.137Z,52.03
2023-04-30T12:57:11.026Z,48.86
2023-04-30T12:59:56.233Z,53.05
2023-04-30T13:02:26.334Z,54.01
2023-04-30T13:04:54.760Z,61.15
2023-04-30T13:07:22.530Z,64.17
2023-04-30T13:09:50.190Z,63.60
2023-04-30T13:12:17.555Z,68.13
2023-04-30T13:14:44.974Z,64.69
2023-04-30T13:17:14.099Z,66.68
2023-04-30T13:19:42.113Z,70.52
2023-04-30T13:22:09.508Z,72.18
2023-04-30T13:24:37.573Z,68.29
2023-04-30T13:27:05.247Z,70.71
2023-04-30T13:29:33.053Z,75.14
2023-04-30T13:32:00.891Z,69.42
2023-04-30T13:34:28.351Z,66.74
2023-04-30T13:36:55.833Z,69.41
2023-04-30T13:39:23.896Z,61.88
2023-04-30T13:41:51.274Z,67.39
2023-04-30T13:44:18.855Z,65.49
2023-04-30T13:46:46.775Z,61.26
2023-04-30T13:49:14.305Z,58.27
2023-04-30T13:51:41.781Z,59.54
2023-04-30T13:54:09.698Z,60.08
2023-04-30T13:56:37.113Z,60.17
2023-04-30T13:59:04.554Z,57.43
2023-04-30T14:01:33.768Z,57.29
2023-04-30T14:04:02.297Z,61.44
2023-04-30T14:06:29.903Z,62.62
2023-04-30T14:08:57.466Z,61.45
2023-04-30T14:11:27.591Z,61.00
2023-04-30T14:13:55.463Z,63.79
2023-04-30T14:16:23.190Z,63.93
2023-04-30T14:18:50.890Z,61.41
2023-04-30T14:21:18.393Z,62.80
2023-04-30T14:23:47.251Z,63.31
2023-04-30T14:26:15.186Z,63.07
2023-04-30T14:28:42.549Z,60.60
2023-04-30T14:31:10.872Z,63.47
2023-04-30T14:33:38.716Z,59.56
2023-04-30T14:36:06.952Z,59.70
2023-04-30T14:38:34.488Z,58.97
2023-04-30T14:41:02.157Z,61.01
2023-04-30T14:43:29.563Z,60.06
2023-04-30T14:45:57.042Z,56.12
2023-04-30T14:48:24.994Z,54.05
2023-04-30T14:50:52.471Z,52.43
2023-04-30T14:53:20.936Z,50.40
2023-04-30T14:55:48.647Z,48.72
2023-04-30T14:58:15.959Z,46.33
2023-04-30T15:00:43.333Z,46.21
2023-04-30T15:03:11.180Z,45.39
2023-04-30T15:05:38.591Z,43.00
2023-04-30T15:08:07.056Z,47.16
2023-04-30T15:10:34.748Z,48.54
2023-04-30T15:13:05.349Z,51.62
2023-04-30T15:15:32.773Z,53.25
2023-04-30T15:18:02.087Z,57.20
2023-04-30T15:20:29.641Z,57.73
2023-04-30T15:22:57.049Z,53.05
2023-04-30T15:25:24.911Z,47.65
2023-04-30T15:27:52.366Z,44.47
2023-04-30T15:30:21.866Z,42.28
2023-04-30T15:32:50.428Z,44.22
2023-04-30T15:35:18.012Z,42.47
2023-04-30T15:37:45.468Z,41.45
2023-04-30T15:40:15.702Z,42.18
2023-04-30T15:42:44.108Z,41.33
2023-04-30T15:45:11.881Z,40.12
2023-04-30T15:47:39.879Z,38.95
2023-04-30T15:50:08.303Z,39.90
2023-04-30T15:52:37.700Z,39.88
2023-04-30T15:55:08.231Z,41.33
2023-04-30T15:57:35.563Z,44.52
2023-04-30T16:00:04.539Z,47.61
2023-04-30T16:02:39.126Z,50.82
2023-04-30T16:05:07.486Z,53.43
2023-04-30T16:07:35.532Z,55.36
2023-04-30T16:10:03.253Z,56.54
2023-04-30T16:12:30.983Z,56.75
2023-04-30T16:14:58.491Z,57.16
2023-04-30T16:17:26.014Z,58.66
2023-04-30T16:19:53.877Z,59.71
2023-04-30T16:22:21.906Z,60.85
2023-04-30T16:24:49.180Z,60.02
2023-04-30T16:27:16.899Z,58.47
2023-04-30T16:29:44.191Z,54.85
2023-04-30T16:32:11.865Z,51.70
2023-04-30T16:34:39.755Z,49.35
2023-04-30T16:37:07.344Z,49.29
2023-04-30T16:39:34.658Z,50.52
2023-04-30T16:42:03.076Z,51.43
2023-04-30T16:44:30.592Z,53.87
2023-04-30T16:47:00.023Z,55.44
2023-04-30T16:49:27.764Z,57.41
2023-04-30T16:51:55.139Z,58.42
2023-04-30T16:54:22.679Z,58.77
2023-04-30T16:56:50.407Z,60.63
2023-04-30T16:59:17.755Z,60.92
2023-04-30T17:01:45.976Z,63.10
2023-04-30T17:04:14.378Z,62.71
2023-04-30T17:06:41.809Z,62.37
2023-04-30T17:09:09.301Z,63.82
2023-04-30T17:11:37.027Z,64.57
2023-04-30T17:14:04.362Z,65.28
2023-04-30T17:16:31.931Z,66.60
2023-04-30T17:18:59.602Z,66.92
2023-04-30T17:21:29.785Z,68.04
2023-04-30T17:23:57.288Z,68.16
2023-04-30T17:26:25.156Z,68.78
2023-04-30T17:28:52.580Z,69.85
2023-04-30T17:31:20.076Z,69.43
2023-04-30T17:33:47.862Z,70.67
2023-04-30T17:36:15.501Z,71.14
2023-04-30T17:38:42.837Z,71.18
2023-04-30T17:41:10.552Z,71.04
2023-04-30T17:43:37.893Z,71.24
2023-04-30T17:46:05.248Z,72.41
2023-04-30T17:48:33.147Z,73.32
2023-04-30T17:51:00.938Z,73.94
2023-04-30T17:53:28.330Z,74.22
2023-04-30T17:55:56.227Z,74.45
2023-04-30T17:58:23.808Z,74.40
2023-04-30T18:00:51.240Z,74.29
2023-04-30T18:03:19.025Z,73.85
2023-04-30T18:05:46.592Z,74.63
2023-04-30T18:08:13.980Z,75.21
2023-04-30T18:10:41.798Z,76.25
2023-04-30T18:13:11.072Z,77.12
2023-04-30T18:15:38.404Z,76.49
2023-04-30T18:18:06.646Z,75.99
2023-04-30T18:20:34.136Z,76.34
2023-04-30T18:23:01.446Z,76.98
2023-04-30T18:25:29.454Z,77.93
2023-04-30T18:27:56.822Z,78.87
2023-04-30T18:30:35.183Z,78.28
2023-04-30T18:33:05.344Z,78.71
2023-04-30T18:35:34.432Z,79.80
2023-04-30T18:38:11.189Z,78.93
2023-04-30T18:40:39.341Z,79.20
2023-04-30T18:43:06.868Z,79.76
2023-04-30T18:45:34.177Z,79.63
2023-04-30T18:48:01.909Z,78.69
2023-04-30T18:50:29.406Z,78.90
2023-04-30T18:52:56.863Z,80.48
2023-04-30T18:55:25.524Z,81.29
2023-04-30T18:57:53.011Z,80.85
2023-04-30T19:00:20.456Z,80.67
2023-04-30T19:02:48.468Z,79.95
2023-04-30T19:05:16.557Z,79.51
2023-04-30T19:07:44.024Z,79.31
2023-04-30T19:10:12.118Z,78.32
2023-04-30T19:12:39.734Z,78.58
2023-04-30T19:15:08.484Z,79.10
2023-04-30T19:17:36.676Z,80.18
2023-04-30T19:20:04.937Z,80.50
2023-04-30T19:22:32.254Z,81.33
2023-04-30T19:25:00.133Z,80.96
2023-04-30T19:27:27.508Z,80.38
2023-04-30T19:29:55.177Z,79.09
2023-04-30T19:32:23.573Z,78.89
2023-04-30T19:34:52.620Z,81.59
2023-04-30T19:37:20.012Z,82.09
2023-04-30T19:39:48.128Z,82.05
2023-04-30T19:42:15.753Z,83.48
2023-04-30T19:44:43.120Z,82.68
2023-04-30T19:47:10.832Z,82.68
2023-04-30T19:49:38.231Z,82.11
2023-04-30T19:52:07.866Z,82.64
2023-04-30T19:54:35.974Z,82.69
2023-04-30T19:57:03.858Z,81.68
2023-04-30T19:59:31.641Z,83.60
2023-04-30T20:01:59.980Z,82.30
2023-04-30T20:04:27.752Z,84.37
2023-04-30T20:06:57.613Z,85.28
2023-04-30T20:09:25.308Z,84.45
2023-04-30T20:11:52.966Z,84.14
2023-04-30T20:14:21.674Z,83.95
2023-04-30T20:16:53.827Z,83.86
2023-04-30T20:19:22.420Z,83.10
2023-04-30T20:21:51.132Z,82.26
2023-04-30T20:24:19.338Z,81.31
2023-04-30T20:26:47.100Z,81.93
2023-04-30T20:29:14.961Z,82.94
2023-04-30T20:31:42.441Z,84.47
2023-04-30T20:34:10.240Z,84.93
2023-04-30T20:36:37.640Z,85.48
2023-04-30T20:39:05.111Z,85.06
2023-04-30T20:41:32.861Z,84.88
2023-04-30T20:44:00.833Z,84.82
2023-04-30T20:46:28.588Z,84.43
2023-04-30T20:49:02.630Z,84.65
2023-04-30T20:51:30.447Z,84.64
2023-04-30T20:53:58.331Z,84.54
2023-04-30T20:56:26.071Z,85.37
2023-04-30T20:58:54.773Z,85.19
2023-04-30T21:01:22.809Z,84.50
2023-04-30T21:03:50.322Z,84.46
2023-04-30T21:06:18.057Z,84.17
2023-04-30T21:08:46.680Z,84.19
2023-04-30T21:11:16.713Z,85.14
2023-04-30T21:13:44.295Z,84.54
2023-04-30T21:16:12.071Z,84.94
2023-04-30T21:18:39.414Z,85.42
2023-04-30T21:21:07.804Z,84.99
2023-04-30T21:23:35.539Z,86.00
2023-04-30T21:26:03.136Z,86.94
2023-04-30T21:28:32.790Z,87.33
2023-04-30T21:31:05.872Z,88.04
2023-04-30T21:33:35.022Z,86.67
2023-04-30T21:36:03.255Z,87.23
2023-04-30T21:38:31.613Z,86.59
2023-04-30T21:40:58.985Z,86.29
2023-04-30T21:43:26.673Z,86.57
2023-04-30T21:45:54.017Z,86.21
2023-04-30T21:48:21.210Z,86.71
2023-04-30T21:50:49.830Z,87.37
2023-04-30T21:53:18.545Z,90.98
2023-04-30T21:55:46.069Z,90.94
2023-04-30T21:58:14.239Z,90.88
2023-04-30T22:00:41.805Z,89.77
2023-04-30T22:03:10.424Z,89.97
2023-04-30T22:05:39.942Z,90.71
2023-04-30T22:08:07.501Z,92.14
2023-04-30T22:10:36.432Z,93.27
2023-04-30T22:13:03.701Z,93.63
2023-04-30T22:15:44.516Z,93.26
2023-04-30T22:18:15.884Z,92.42
2023-04-30T22:20:43.160Z,91.32
2023-04-30T22:23:10.457Z,91.60
2023-04-30T22:25:38.057Z,91.30
2023-04-30T22:28:05.775Z,90.44
2023-04-30T22:30:33.181Z,90.69
2023-04-30T22:33:00.884Z,91.82
2023-04-30T22:35:29.011Z,91.92
2023-04-30T22:37:56.609Z,90.52
2023-04-30T22:40:24.649Z,90.07
2023-04-30T22:42:52.464Z,90.65
2023-04-30T22:45:19.916Z,91.01
2023-04-30T22:47:47.851Z,90.39
2023-04-30T22:52:43.076Z,89.56
2023-04-30T22:55:11.889Z,88.92
2023-04-30T22:57:39.294Z,89.53
2023-04-30T23:00:07.209Z,90.08
2023-04-30T23:02:34.903Z,89.60
2023-04-30T23:05:03.353Z,89.20
2023-04-30T23:07:30.516Z,89.43
2023-04-30T23:09:58.498Z,88.48
2023-04-30T23:12:26.233Z,87.93
2023-04-30T23:14:53.794Z,87.33
2023-04-30T23:17:21.529Z,86.85
2023-04-30T23:19:49.718Z,89.17
2023-04-30T23:22:17.243Z,89.19
2023-04-30T23:24:44.897Z,87.23
2023-04-30T23:27:12.565Z,88.03
2023-04-30T23:29:40.107Z,88.69
2023-04-30T23:32:07.746Z,88.47
2023-04-30T23:34:35.302Z,88.92
2023-04-30T23:37:02.564Z,88.35
2023-04-30T23:39:30.189Z,87.77
2023-04-30T23:41:57.842Z,88.12
2023-04-30T23:44:25.122Z,88.68
2023-04-30T23:46:52.856Z,89.02
2023-04-30T23:49:24.596Z,88.93
2023-04-30T23:51:52.343Z,88.58
2023-04-30T23:54:21.034Z,88.20
2023-04-30T23:56:48.385Z,87.67
2023-04-30T23:59:16.371Z,88.14
